Nearby METAR Reports

 

KDFW - Dallas/Ft Worth, Texas, USA
Distance from station: SSE 10mi, 16km
Updated: Wed, 11-Dec-2019 7:53am CST
Mist, Overcast
Mist, Overcast
 Wind from SSE
Wind: SSE 7 mph , 11 km/h
Temperature: 36°F , 2°C
Wind Chill: 30°F , -1°C
Dew Point: 34°F , 1°C
Humidity: 93%
Barometer: 30.52 inHg , 1033.5 hPa
Summary: Mist
Clouds: Overcast
Visibility: 6 miles , 10 km
Cloud details: Overcast 500 ft
2019/12/11 13:53 KDFW 111353Z 15006KT 6SM BR OVC005 02/01 A3052 RMK AO2 SLP338 T00220011 $
KDTO - Denton, Texas, USA
Distance from station: NNW 13mi, 21km
Updated: Wed, 11-Dec-2019 7:53am CST
Freezing fog, Overcast
Freezing fog, Overcast
 Wind from calm
Wind: Calm
Temperature: 30°F , -1°C
Dew Point: 30°F , -1°C
Humidity: 100%
Barometer: 30.54 inHg , 1034.2 hPa
Summary: Freezing Fog
Clouds: Overcast
Visibility: 1/4 mile , 0.4 km
Cloud details: Overcast 200 ft
2019/12/11 13:53 KDTO 111353Z 00000KT 1/4SM FZFG OVC002 M01/M01 A3054 RMK AO2 SLP345 I1000 T10061011
 
KAFW - Ft Worth/Allianc, Texas, USA
Distance from station: WSW 14mi, 22km
Updated: Wed, 11-Dec-2019 8:21am CST
Fog, Overcast
Fog, Overcast
 Wind from SSE
Wind: SSE 8 mph , 13 km/h
Temperature: 36°F , 2°C
Wind Chill: 30°F , -1°C
Dew Point: 34°F , 1°C
Humidity: 93%
Barometer: 30.53 inHg , 1033.9 hPa
Summary: Fog
Clouds: Overcast
Visibility: 1/4 mile , 0.4 km
Cloud details: Overcast 200 ft
2019/12/11 14:21 KAFW 111421Z 16007KT 1/4SM R16L/2000V2400FT FG OVC002 02/01 A3053 RMK AO2 SFC VIS 1/2 T00170006
KADS - Dallas/Addison, Texas, USA
Distance from station: ESE 17mi, 27km
Updated: Wed, 11-Dec-2019 7:53am CST
Partly cloudy
Partly cloudy
 Wind from SSE
Wind: SSE 9 mph , 15 km/h
Temperature: 36°F , 2°C
Wind Chill: 29°F , -2°C
Dew Point: 32°F , 0°C
Humidity: 87%
Barometer: 30.55 inHg , 1034.5 hPa
Clouds: Partly cloudy
Visibility: 10 miles , 16 km
Cloud details: Partly cloudy 600 ft
2019/12/11 13:53 KADS 111353Z 16008KT 10SM SCT006 02/00 A3055
 
KDAL - Dallas/Love Fld, Texas, USA
Distance from station: SE 19mi, 30km
Updated: Wed, 11-Dec-2019 7:53am CST
Overcast
Overcast
 Wind from SE
Wind: SE 6 mph , 9 km/h
Temperature: 37°F , 3°C
Wind Chill: 32°F , 0°C
Dew Point: 34°F , 1°C
Humidity: 87%
Barometer: 30.54 inHg , 1034.2 hPa
Clouds: Overcast
Visibility: 7 miles , 11 km
Cloud details: Overcast 700 ft
2019/12/11 13:53 KDAL 111353Z 14005KT 7SM OVC007 03/01 A3054 RMK AO2 SLP344 BINOVC T00330011 $
KFTW - Fort Worth, Texas, USA
Distance from station: SW 21mi, 34km
Updated: Wed, 11-Dec-2019 7:53am CST
Fog, Overcast
Fog, Overcast
 Wind from SSE
Wind: SSE 6 mph , 9 km/h
Temperature: 34°F , 1°C
Wind Chill: 29°F , -2°C
Dew Point: 34°F , 1°C
Humidity: 100%
Barometer: 30.53 inHg , 1033.9 hPa
Summary: Fog
Clouds: Overcast
Visibility: 1/4 mile , 0.4 km
Cloud details: Overcast 100 ft
2019/12/11 13:53 KFTW 111353Z 16005KT 1/4SM R16/1200V2400FT FG VV001 01/01 A3053 RMK AO2 SLP341 T00110011
 
KGPM - Grand Prairie, Texas, USA
Distance from station: S 23mi, 37km
Updated: Wed, 11-Dec-2019 7:50am CST
Overcast
Overcast
 Wind from SSE
Wind: SSE 7 mph , 11 km/h
Temperature: 37°F , 3°C
Wind Chill: 32°F , 0°C
Dew Point: 37°F , 3°C
Humidity: 100%
Barometer: 30.55 inHg , 1034.5 hPa
Clouds: Overcast
Visibility: 10 miles , 16 km
Cloud details: Overcast 600 ft
2019/12/11 13:50 KGPM 111350Z 16006KT 10SM OVC006 03/03 A3055
KGKY - Arlington, Texas, USA
Distance from station: S 25mi, 41km
Updated: Wed, 11-Dec-2019 7:53am CST
Overcast
Overcast
 Wind from SE
Wind: SE 7 mph , 11 km/h
Temperature: 37°F , 3°C
Wind Chill: 32°F , 0°C
Dew Point: 36°F , 2°C
Humidity: 93%
Barometer: 30.53 inHg , 1033.9 hPa
Clouds: Overcast
Visibility: 7 miles , 11 km
Cloud details: Overcast 500 ft
2019/12/11 13:53 KGKY 111353Z 13006KT 7SM OVC005 03/02 A3053 RMK AO2 SLP343 T00330017